Time;durP1;ratioP1;P1;durP2;ratioP2;P2;SDS_P1;SDS_P2;PMS_P1;PMS_P2;Temp;Humidity;BMP_temperature;BMP_pressure;BME280_temperature;BME280_humidity;BME280_pressure;Samples;Min_cycle;Max_cycle;Signal;HPM_P1;HPM_P2
2023/12/11 00:02:25;;;;;;;0.60;0.60;;;-0.10;99.90;;;;;;5110008;28;20227;-69
2023/12/11 00:04:51;;;;;;;1.63;1.52;;;-0.10;99.90;;;;;;5110281;28;20210;-68
2023/12/11 00:07:17;;;;;;;0.80;0.80;;;-0.10;99.90;;;;;;5110029;28;20191;-67
2023/12/11 00:09:43;;;;;;;0.70;0.70;;;-0.10;99.90;;;;;;5109452;28;20209;-68
2023/12/11 00:12:09;;;;;;;0.70;0.70;;;-0.10;99.90;;;;;;5109778;28;20801;-67
2023/12/11 00:14:35;;;;;;;0.80;0.80;;;-0.10;99.90;;;;;;5109034;28;20198;-68
2023/12/11 00:17:01;;;;;;;0.60;0.60;;;-0.10;99.90;;;;;;5109763;28;20195;-68
2023/12/11 00:19:27;;;;;;;0.65;0.65;;;-0.10;99.90;;;;;;5109492;28;20432;-68
2023/12/11 00:21:53;;;;;;;0.90;0.90;;;-0.10;99.90;;;;;;5109906;28;20194;-69
2023/12/11 00:24:19;;;;;;;0.70;0.70;;;-0.10;99.90;;;;;;5109304;28;20203;-67
2023/12/11 00:26:45;;;;;;;0.75;0.75;;;0.00;99.90;;;;;;5109345;28;20248;-67
2023/12/11 00:29:11;;;;;;;0.70;0.70;;;-0.10;99.90;;;;;;5109437;28;20200;-67
2023/12/11 00:31:36;;;;;;;0.80;0.80;;;-0.10;99.90;;;;;;5109183;28;20659;-67
2023/12/11 00:34:02;;;;;;;0.60;0.60;;;-0.10;99.90;;;;;;5109696;28;20666;-72
2023/12/11 00:36:28;;;;;;;0.65;0.65;;;0.00;99.90;;;;;;5109573;28;20191;-72
2023/12/11 00:38:53;;;;;;;0.70;0.70;;;-0.10;99.90;;;;;;5109258;28;20214;-72
2023/12/11 00:41:19;;;;;;;1.50;1.40;;;-0.10;99.90;;;;;;5109259;28;20199;-70
2023/12/11 00:43:45;;;;;;;0.68;0.68;;;-0.10;99.90;;;;;;5109429;28;20195;-72
2023/12/11 00:46:15;;;;;;;0.70;0.70;;;0.00;99.90;;;;;;5091072;28;20196;-71
2023/12/11 00:48:40;;;;;;;0.60;0.60;;;0.00;99.90;;;;;;5090410;28;20298;-73
2023/12/11 00:51:06;;;;;;;0.80;0.80;;;-0.10;99.90;;;;;;5109155;28;20270;-72
2023/12/11 00:53:32;;;;;;;0.70;0.70;;;-0.10;99.90;;;;;;5108943;28;20231;-70
2023/12/11 00:55:57;;;;;;;0.70;0.70;;;0.00;99.90;;;;;;5109292;28;20191;-72
2023/12/11 00:58:23;;;;;;;0.70;0.70;;;-0.10;99.90;;;;;;5108953;28;20207;-72
2023/12/11 01:00:49;;;;;;;8.27;1.52;;;-0.10;99.90;;;;;;5109118;28;20195;-72
2023/12/11 01:03:14;;;;;;;0.70;0.70;;;0.00;99.90;;;;;;5108978;28;20883;-72
2023/12/11 01:05:41;;;;;;;0.75;0.75;;;0.00;99.90;;;;;;5108957;28;20300;-71
2023/12/11 01:08:07;;;;;;;0.60;0.60;;;0.00;99.90;;;;;;5090896;28;20556;-73
2023/12/11 01:10:33;;;;;;;0.80;0.80;;;0.00;99.90;;;;;;5109230;28;20268;-72
2023/12/11 01:12:59;;;;;;;0.60;0.60;;;0.00;99.90;;;;;;5109009;28;20242;-72
2023/12/11 01:15:24;;;;;;;0.70;0.70;;;0.00;99.90;;;;;;5108990;28;20195;-72
2023/12/11 01:17:50;;;;;;;0.70;0.70;;;0.00;99.90;;;;;;5109049;28;20203;-71
2023/12/11 01:20:16;;;;;;;1.15;1.10;;;0.00;99.90;;;;;;5093354;28;20253;-72
2023/12/11 01:22:41;;;;;;;0.70;0.70;;;0.00;99.90;;;;;;5088448;28;20188;-72
2023/12/11 01:25:08;;;;;;;0.70;0.70;;;-0.10;99.90;;;;;;5088686;28;20576;-73
2023/12/11 01:27:34;;;;;;;0.80;0.80;;;0.00;99.90;;;;;;5073580;28;20560;-72
2023/12/11 01:30:00;;;;;;;0.70;0.70;;;-0.10;99.90;;;;;;5092487;28;20191;-70
2023/12/11 01:32:25;;;;;;;0.60;0.60;;;-0.10;99.90;;;;;;5092437;28;20206;-72
2023/12/11 01:34:52;;;;;;;0.70;0.70;;;-0.10;99.90;;;;;;5074145;28;20566;-71
2023/12/11 01:37:18;;;;;;;0.80;0.80;;;0.00;99.90;;;;;;5098310;28;20195;-71
2023/12/11 01:39:44;;;;;;;0.80;0.80;;;0.00;99.90;;;;;;5112670;28;20210;-72
2023/12/11 01:42:10;;;;;;;1.45;1.35;;;-0.10;99.90;;;;;;5112597;28;20199;-73
2023/12/11 01:44:36;;;;;;;0.77;0.77;;;0.00;99.90;;;;;;5101875;28;20216;-68
2023/12/11 01:47:02;;;;;;;1.00;1.00;;;-0.10;99.90;;;;;;5111668;28;20200;-67
2023/12/11 01:49:28;;;;;;;0.80;0.80;;;0.00;99.90;;;;;;5111994;28;20209;-69
2023/12/11 01:51:54;;;;;;;0.80;0.75;;;0.00;99.90;;;;;;5111805;28;20207;-69
2023/12/11 01:54:20;;;;;;;0.68;0.68;;;0.00;99.90;;;;;;5111933;28;20234;-69
2023/12/11 01:56:46;;;;;;;0.70;0.70;;;0.00;99.90;;;;;;5111800;28;20191;-68
2023/12/11 01:59:13;;;;;;;0.73;0.73;;;0.00;99.90;;;;;;5111524;28;20263;-69
2023/12/11 02:01:41;;;;;;;0.60;0.60;;;0.00;99.90;;;;;;5111251;28;20183;-68
2023/12/11 02:04:08;;;;;;;0.60;0.60;;;0.00;99.90;;;;;;5093526;28;20192;-68
2023/12/11 02:06:34;;;;;;;0.70;0.70;;;0.00;99.90;;;;;;5111797;28;20651;-69
2023/12/11 02:09:00;;;;;;;0.70;0.70;;;0.00;99.90;;;;;;5112422;28;20207;-68
2023/12/11 02:11:30;;;;;;;1.10;1.10;;;0.00;99.90;;;;;;5093462;28;20730;-69
2023/12/11 02:13:55;;;;;;;0.65;0.65;;;0.00;99.90;;;;;;5111794;28;20203;-68
2023/12/11 02:16:21;;;;;;;0.88;0.88;;;0.00;99.90;;;;;;5111448;28;20195;-68
2023/12/11 02:18:47;;;;;;;0.70;0.70;;;0.00;99.90;;;;;;5111506;28;20558;-68
2023/12/11 02:21:22;;;;;;;0.70;0.70;;;0.00;99.90;;;;;;5093460;28;20203;-68
2023/12/11 02:23:59;;;;;;;0.60;0.60;;;0.00;99.90;;;;;;5092796;28;20220;-69
2023/12/11 02:26:25;;;;;;;0.70;0.70;;;0.00;99.90;;;;;;5111386;28;20324;-68
2023/12/11 02:28:50;;;;;;;0.70;0.70;;;0.00;99.90;;;;;;5111729;28;20203;-68
2023/12/11 02:31:16;;;;;;;0.90;0.90;;;0.00;99.90;;;;;;5111583;28;20195;-69
2023/12/11 02:33:42;;;;;;;0.70;0.70;;;0.00;99.90;;;;;;5111494;28;20192;-68
2023/12/11 02:36:08;;;;;;;0.60;0.60;;;0.00;99.90;;;;;;5111671;28;20195;-68
2023/12/11 02:38:34;;;;;;;0.60;0.60;;;0.00;99.90;;;;;;5092222;28;20610;-69
2023/12/11 02:41:00;;;;;;;0.95;0.95;;;0.00;99.90;;;;;;5101217;28;20215;-68
2023/12/11 02:43:25;;;;;;;0.63;0.63;;;0.00;99.90;;;;;;5091074;28;20328;-69
2023/12/11 02:45:51;;;;;;;0.65;0.65;;;0.00;99.90;;;;;;5091454;28;20284;-67
2023/12/11 02:48:18;;;;;;;0.80;0.80;;;0.00;99.90;;;;;;5090993;28;20192;-67
2023/12/11 02:50:44;;;;;;;0.70;0.70;;;0.00;99.90;;;;;;5091170;28;20204;-67
2023/12/11 02:53:09;;;;;;;0.93;0.90;;;0.00;99.90;;;;;;5090946;28;20196;-70
2023/12/11 02:55:35;;;;;;;0.65;0.65;;;0.00;99.90;;;;;;5090754;28;20200;-70
2023/12/11 02:58:03;;;;;;;0.70;0.70;;;0.00;99.90;;;;;;5090813;28;20208;-70
2023/12/11 03:00:30;;;;;;;0.60;0.60;;;0.00;99.90;;;;;;5090514;28;20975;-70
2023/12/11 03:02:56;;;;;;;0.70;0.70;;;0.00;99.90;;;;;;5090775;28;20199;-70
2023/12/11 03:05:22;;;;;;;0.50;0.50;;;0.00;99.90;;;;;;5090547;28;20196;-71
2023/12/11 03:07:48;;;;;;;0.70;0.70;;;0.00;99.90;;;;;;5090821;28;20691;-70
2023/12/11 03:10:14;;;;;;;0.55;0.55;;;0.10;99.90;;;;;;5091063;28;20220;-70
2023/12/11 03:12:39;;;;;;;0.63;0.63;;;0.10;99.90;;;;;;5104752;28;20200;-70
2023/12/11 03:15:06;;;;;;;0.70;0.70;;;0.10;99.90;;;;;;5110893;28;20183;-70
2023/12/11 03:17:32;;;;;;;3.03;1.85;;;0.10;99.90;;;;;;5110634;28;20192;-70
2023/12/11 03:20:01;;;;;;;0.70;0.70;;;0.10;99.90;;;;;;5110809;28;20247;-70
2023/12/11 03:22:27;;;;;;;0.73;0.73;;;0.10;99.90;;;;;;5110523;28;20207;-71
2023/12/11 03:24:53;;;;;;;2.00;1.80;;;0.10;99.90;;;;;;5110633;28;20199;-70
2023/12/11 03:27:22;;;;;;;0.70;0.70;;;0.00;99.90;;;;;;5110966;28;20203;-70
2023/12/11 03:29:48;;;;;;;0.70;0.70;;;0.10;99.90;;;;;;5110632;28;20193;-71
2023/12/11 03:32:14;;;;;;;1.00;1.00;;;0.10;99.90;;;;;;5092036;28;20270;-71
2023/12/11 03:34:40;;;;;;;1.00;1.00;;;0.10;99.90;;;;;;5110393;28;20217;-71
2023/12/11 03:37:06;;;;;;;0.70;0.70;;;0.10;99.90;;;;;;5109897;28;20613;-70
2023/12/11 03:39:32;;;;;;;0.65;0.65;;;0.10;99.90;;;;;;5109908;28;20231;-71
2023/12/11 03:41:58;;;;;;;0.80;0.80;;;0.10;99.90;;;;;;5091872;28;20248;-70
2023/12/11 03:44:24;;;;;;;0.70;0.70;;;0.10;99.90;;;;;;5109868;28;20202;-70
2023/12/11 03:46:49;;;;;;;0.80;0.80;;;0.10;99.90;;;;;;5110463;28;20196;-70
2023/12/11 03:49:16;;;;;;;0.80;0.80;;;0.10;99.90;;;;;;5091281;28;20203;-70
2023/12/11 03:51:45;;;;;;;0.80;0.80;;;0.10;99.90;;;;;;5110144;28;20191;-70
2023/12/11 03:54:11;;;;;;;1.42;1.15;;;0.10;99.90;;;;;;5110119;28;20352;-70
2023/12/11 03:56:39;;;;;;;0.80;0.80;;;0.10;99.90;;;;;;5110454;28;20793;-71
2023/12/11 03:59:05;;;;;;;0.60;0.60;;;0.10;99.90;;;;;;5091391;28;20230;-71
2023/12/11 04:01:31;;;;;;;0.70;0.70;;;0.10;99.90;;;;;;5100510;28;20196;-70
2023/12/11 04:03:56;;;;;;;0.85;0.85;;;0.20;99.90;;;;;;5110221;28;20187;-69
2023/12/11 04:06:22;;;;;;;0.70;0.70;;;0.10;99.90;;;;;;5109684;28;20218;-69
2023/12/11 04:08:48;;;;;;;0.70;0.70;;;0.10;99.90;;;;;;5096456;28;20274;-68
2023/12/11 04:11:13;;;;;;;0.75;0.75;;;0.10;99.90;;;;;;5089490;28;20726;-69
2023/12/11 04:13:39;;;;;;;0.75;0.75;;;0.10;99.90;;;;;;5089618;28;20191;-68
2023/12/11 04:16:05;;;;;;;0.80;0.80;;;0.10;99.90;;;;;;5071220;28;20565;-67
2023/12/11 04:18:32;;;;;;;1.15;1.15;;;0.20;99.90;;;;;;5088696;28;20633;-68
2023/12/11 04:20:58;;;;;;;0.75;0.75;;;0.10;99.90;;;;;;5088796;28;20192;-68
2023/12/11 04:23:24;;;;;;;0.70;0.70;;;0.10;99.90;;;;;;5088337;28;20196;-68
2023/12/11 04:25:54;;;;;;;1.10;1.00;;;0.10;99.90;;;;;;5088836;28;20196;-68
2023/12/11 04:28:21;;;;;;;0.90;0.90;;;0.10;99.90;;;;;;5088995;28;20620;-69
2023/12/11 04:30:47;;;;;;;0.98;0.98;;;0.10;99.90;;;;;;5088746;28;20690;-68
2023/12/11 04:33:12;;;;;;;0.70;0.70;;;0.20;99.90;;;;;;5088482;28;20212;-70
2023/12/11 04:35:38;;;;;;;0.60;0.60;;;0.10;99.90;;;;;;5107224;28;20254;-69
2023/12/11 04:38:04;;;;;;;0.70;0.70;;;0.20;99.90;;;;;;5090107;28;20203;-68
2023/12/11 04:40:30;;;;;;;0.60;0.60;;;0.20;99.90;;;;;;5108292;28;20199;-68
2023/12/11 04:42:55;;;;;;;0.80;0.80;;;0.20;99.90;;;;;;5109030;28;20274;-69
2023/12/11 04:45:21;;;;;;;0.70;0.70;;;0.20;99.90;;;;;;5108636;28;20187;-68
2023/12/11 04:47:47;;;;;;;0.68;0.68;;;0.20;99.90;;;;;;5090911;28;20219;-69
2023/12/11 04:50:12;;;;;;;0.82;0.82;;;0.20;99.90;;;;;;5110014;28;20202;-68
2023/12/11 04:52:38;;;;;;;0.82;0.82;;;0.20;99.90;;;;;;5109168;28;20200;-67
2023/12/11 04:55:04;;;;;;;0.80;0.80;;;0.20;99.90;;;;;;5109609;28;20247;-68
2023/12/11 04:57:30;;;;;;;0.80;0.80;;;0.20;99.90;;;;;;5109166;28;20203;-66
2023/12/11 04:59:55;;;;;;;0.90;0.90;;;0.20;99.90;;;;;;5110555;28;20256;-67
2023/12/11 05:02:21;;;;;;;0.70;0.70;;;0.20;99.90;;;;;;5115793;28;20708;-66
2023/12/11 05:04:47;;;;;;;0.63;0.63;;;0.20;99.90;;;;;;5104432;28;20199;-66
2023/12/11 05:07:13;;;;;;;0.70;0.70;;;0.20;99.90;;;;;;5095555;28;20223;-66
2023/12/11 05:09:38;;;;;;;0.75;0.75;;;0.20;99.90;;;;;;5095326;28;20206;-66
2023/12/11 05:12:04;;;;;;;0.70;0.70;;;0.20;99.90;;;;;;5077410;28;20664;-66
2023/12/11 05:14:30;;;;;;;0.60;0.60;;;0.20;99.90;;;;;;5095601;28;20196;-70
2023/12/11 05:16:56;;;;;;;0.70;0.70;;;0.20;99.90;;;;;;5095497;28;20236;-70
2023/12/11 05:19:21;;;;;;;0.82;0.82;;;0.20;99.90;;;;;;5094930;28;20208;-69
2023/12/11 05:21:47;;;;;;;0.90;0.90;;;0.20;99.90;;;;;;5095355;28;20661;-70
2023/12/11 05:24:13;;;;;;;0.98;0.98;;;0.20;99.90;;;;;;5095392;28;20196;-70
2023/12/11 05:26:39;;;;;;;0.60;0.60;;;0.20;99.90;;;;;;5095121;28;20293;-70
2023/12/11 05:29:05;;;;;;;0.60;0.60;;;0.20;99.90;;;;;;5100682;28;20195;-70
2023/12/11 05:31:31;;;;;;;0.60;0.60;;;0.20;99.90;;;;;;5115424;28;20215;-71
2023/12/11 05:33:57;;;;;;;0.80;0.80;;;0.20;99.90;;;;;;5115699;28;20183;-70
2023/12/11 05:36:23;;;;;;;0.70;0.70;;;0.20;99.90;;;;;;5115481;28;20278;-71
2023/12/11 05:38:49;;;;;;;0.80;0.80;;;0.20;99.90;;;;;;5115160;28;20697;-70
2023/12/11 05:41:14;;;;;;;0.70;0.70;;;0.20;99.90;;;;;;5115505;28;20210;-70
2023/12/11 05:43:40;;;;;;;0.73;0.73;;;0.20;99.90;;;;;;5115421;28;20298;-70
2023/12/11 05:46:07;;;;;;;0.80;0.80;;;0.20;99.90;;;;;;5115486;28;20226;-70
2023/12/11 05:48:33;;;;;;;0.98;0.98;;;0.20;99.90;;;;;;5096851;28;20637;-70
2023/12/11 05:50:59;;;;;;;0.80;0.80;;;0.30;99.90;;;;;;5115326;28;20199;-71
2023/12/11 05:53:25;;;;;;;0.60;0.60;;;0.20;99.90;;;;;;5115296;28;20782;-70
2023/12/11 05:55:51;;;;;;;0.70;0.70;;;0.20;99.90;;;;;;5115752;28;20199;-71
2023/12/11 05:58:16;;;;;;;1.48;1.38;;;0.30;99.90;;;;;;5115287;28;20207;-71
2023/12/11 06:00:42;;;;;;;0.70;0.70;;;0.30;99.90;;;;;;5114963;28;20179;-72
2023/12/11 06:03:08;;;;;;;2.05;1.88;;;0.20;99.90;;;;;;5115223;28;20188;-72
2023/12/11 06:05:33;;;;;;;0.60;0.60;;;0.30;99.90;;;;;;5115235;28;20261;-72
2023/12/11 06:07:59;;;;;;;0.60;0.60;;;0.30;99.90;;;;;;5115424;28;20197;-71
2023/12/11 06:10:25;;;;;;;0.60;0.60;;;0.30;99.90;;;;;;5096914;28;20622;-72
2023/12/11 06:12:51;;;;;;;0.80;0.80;;;0.30;99.90;;;;;;5093612;28;20218;-71
2023/12/11 06:15:17;;;;;;;0.70;0.70;;;0.20;99.90;;;;;;5112169;28;20294;-70
2023/12/11 06:17:42;;;;;;;0.88;0.88;;;0.20;99.90;;;;;;5111939;28;20222;-71
2023/12/11 06:20:09;;;;;;;0.80;0.80;;;0.20;99.90;;;;;;5093439;28;20663;-71
2023/12/11 06:22:36;;;;;;;0.80;0.80;;;0.20;99.90;;;;;;5111809;28;20195;-71
2023/12/11 06:25:02;;;;;;;0.70;0.70;;;0.30;99.90;;;;;;5111987;28;20561;-70
2023/12/11 06:27:28;;;;;;;0.75;0.75;;;0.30;99.90;;;;;;5111285;28;20218;-70
2023/12/11 06:29:57;;;;;;;0.70;0.70;;;0.30;99.90;;;;;;5112702;28;20195;-70
2023/12/11 06:32:22;;;;;;;0.50;0.50;;;0.30;99.90;;;;;;5113298;28;20191;-70
2023/12/11 06:34:48;;;;;;;0.60;0.60;;;0.30;99.90;;;;;;5093954;28;20207;-70
2023/12/11 06:37:14;;;;;;;0.80;0.80;;;0.30;99.90;;;;;;5111422;28;20241;-69
2023/12/11 06:39:40;;;;;;;0.70;0.70;;;0.30;99.90;;;;;;5111509;28;20726;-70
2023/12/11 06:42:06;;;;;;;0.80;0.80;;;0.30;99.90;;;;;;5111530;28;20223;-70
2023/12/11 06:44:31;;;;;;;0.70;0.70;;;0.30;99.90;;;;;;5111464;28;20191;-70
2023/12/11 06:46:57;;;;;;;0.65;0.65;;;0.30;99.90;;;;;;5111449;28;20258;-70
2023/12/11 06:49:23;;;;;;;0.70;0.70;;;0.30;99.90;;;;;;5111105;28;20195;-70
2023/12/11 06:51:49;;;;;;;0.70;0.70;;;0.30;99.90;;;;;;5111443;28;20200;-70
2023/12/11 06:54:15;;;;;;;0.60;0.60;;;0.30;99.90;;;;;;5111308;28;20685;-70
2023/12/11 06:56:41;;;;;;;0.70;0.70;;;0.30;99.90;;;;;;5092513;28;20231;-70
2023/12/11 06:59:07;;;;;;;0.70;0.70;;;0.30;99.90;;;;;;5111110;28;20295;-70
2023/12/11 07:01:34;;;;;;;0.80;0.80;;;0.30;99.90;;;;;;5111326;28;20506;-70
2023/12/11 07:04:00;;;;;;;0.70;0.70;;;0.30;99.90;;;;;;5111377;28;20351;-70
2023/12/11 07:06:26;;;;;;;0.70;0.70;;;0.30;99.90;;;;;;5111144;28;20184;-69
2023/12/11 07:08:52;;;;;;;0.73;0.73;;;0.30;99.90;;;;;;5111133;28;20252;-70
2023/12/11 07:11:17;;;;;;;0.60;0.60;;;0.30;99.90;;;;;;5092617;28;20204;-70
2023/12/11 07:13:43;;;;;;;0.80;0.80;;;0.30;99.90;;;;;;5111261;28;20244;-70
2023/12/11 07:16:09;;;;;;;0.70;0.70;;;0.30;99.90;;;;;;5111736;28;20218;-70
2023/12/11 07:18:35;;;;;;;0.80;0.80;;;0.30;99.90;;;;;;5092170;28;20639;-70
2023/12/11 07:21:02;;;;;;;0.73;0.73;;;0.30;99.90;;;;;;5110640;28;20199;-70
2023/12/11 07:23:28;;;;;;;1.25;1.15;;;0.30;99.90;;;;;;5109202;28;20199;-70
2023/12/11 07:25:54;;;;;;;0.60;0.60;;;0.30;99.90;;;;;;5110736;28;20191;-71
2023/12/11 07:28:19;;;;;;;0.80;0.80;;;0.30;99.90;;;;;;5110390;28;20195;-70
2023/12/11 07:30:45;;;;;;;0.70;0.70;;;0.30;99.90;;;;;;5110506;28;20199;-69
2023/12/11 07:33:11;;;;;;;0.70;0.70;;;0.30;99.90;;;;;;5110648;28;20225;-66
2023/12/11 07:35:36;;;;;;;0.73;0.73;;;0.30;99.90;;;;;;5091823;28;20204;-68
2023/12/11 07:38:03;;;;;;;1.95;1.80;;;0.30;99.90;;;;;;5110380;28;20183;-67
2023/12/11 07:40:29;;;;;;;0.73;0.73;;;0.30;99.90;;;;;;5110183;28;20196;-69
2023/12/11 07:42:55;;;;;;;0.70;0.70;;;0.30;99.90;;;;;;5110516;28;20217;-69
2023/12/11 07:45:22;;;;;;;0.80;0.80;;;0.30;99.90;;;;;;5110448;28;20210;-70
2023/12/11 07:47:48;;;;;;;0.65;0.65;;;0.30;99.90;;;;;;5110346;28;20646;-70
2023/12/11 07:50:14;;;;;;;0.70;0.70;;;0.40;99.90;;;;;;5110659;28;20443;-71
2023/12/11 07:52:41;;;;;;;0.60;0.60;;;0.30;99.90;;;;;;5105842;28;20249;-71
2023/12/11 07:55:07;;;;;;;0.47;0.47;;;0.30;99.90;;;;;;5089734;28;20227;-71
2023/12/11 07:57:33;;;;;;;0.80;0.80;;;0.40;99.90;;;;;;5089443;28;20192;-71
2023/12/11 07:59:58;;;;;;;0.70;0.70;;;0.40;99.90;;;;;;5079246;28;20562;-71
2023/12/11 08:02:24;;;;;;;0.70;0.70;;;0.30;99.90;;;;;;5091411;28;20694;-71
2023/12/11 08:04:50;;;;;;;1.00;1.00;;;0.30;99.90;;;;;;5095196;28;21126;-71
2023/12/11 08:07:16;;;;;;;0.57;0.57;;;0.40;99.90;;;;;;5091051;28;20204;-71
2023/12/11 08:09:41;;;;;;;0.60;0.60;;;0.40;99.90;;;;;;5091970;28;20273;-71
2023/12/11 08:12:08;;;;;;;1.38;1.25;;;0.40;99.90;;;;;;5104386;28;20697;-71
2023/12/11 08:14:33;;;;;;;0.50;0.50;;;0.40;99.90;;;;;;5089376;28;20265;-71
2023/12/11 08:16:59;;;;;;;0.88;0.88;;;0.40;99.90;;;;;;5104990;28;20639;-71
2023/12/11 08:19:25;;;;;;;0.52;0.52;;;0.40;99.90;;;;;;5095644;28;20696;-71
2023/12/11 08:21:52;;;;;;;0.90;0.90;;;0.40;99.90;;;;;;5097292;28;20196;-72
2023/12/11 08:24:18;;;;;;;0.70;0.70;;;0.50;99.90;;;;;;5089404;28;20185;-72
2023/12/11 08:26:44;;;;;;;0.80;0.80;;;0.50;99.90;;;;;;5089346;28;20254;-72
2023/12/11 08:29:10;;;;;;;0.70;0.70;;;0.50;99.90;;;;;;5089295;28;20295;-70
2023/12/11 08:31:36;;;;;;;0.70;0.70;;;0.50;99.90;;;;;;5089936;28;20286;-72
2023/12/11 08:34:02;;;;;;;0.80;0.80;;;0.50;99.90;;;;;;5108194;28;20210;-70
2023/12/11 08:36:27;;;;;;;1.20;1.10;;;0.50;99.90;;;;;;5102124;28;20200;-71
2023/12/11 08:38:53;;;;;;;0.60;0.60;;;0.50;99.90;;;;;;5089064;28;20575;-71
2023/12/11 08:41:19;;;;;;;0.70;0.70;;;0.50;99.90;;;;;;5100723;28;20191;-71
2023/12/11 08:43:46;;;;;;;0.70;0.70;;;0.60;99.90;;;;;;5109908;28;20249;-69
2023/12/11 08:46:12;;;;;;;0.60;0.60;;;0.50;99.90;;;;;;5109333;28;20267;-70
2023/12/11 08:48:38;;;;;;;0.63;0.63;;;0.50;99.90;;;;;;5108829;28;20203;-70
2023/12/11 08:51:05;;;;;;;0.80;0.80;;;0.60;99.90;;;;;;5109223;28;20191;-70
2023/12/11 08:53:30;;;;;;;0.60;0.60;;;0.60;99.90;;;;;;5090603;28;20709;-68
2023/12/11 08:55:56;;;;;;;0.80;0.80;;;0.60;99.90;;;;;;5090721;28;20199;-67
2023/12/11 08:58:23;;;;;;;0.70;0.70;;;0.60;99.90;;;;;;5090434;28;20231;-68
2023/12/11 09:00:49;;;;;;;0.60;0.60;;;0.60;99.90;;;;;;5109487;28;20670;-67
2023/12/11 09:03:15;;;;;;;0.70;0.70;;;0.70;99.90;;;;;;5109040;28;20191;-67
2023/12/11 09:05:41;;;;;;;0.70;0.70;;;0.70;99.90;;;;;;5108489;28;20348;-67
2023/12/11 09:08:07;;;;;;;0.90;0.90;;;0.70;99.90;;;;;;5109205;28;20199;-67
2023/12/11 09:10:35;;;;;;;0.52;0.52;;;0.70;99.90;;;;;;5103263;28;20227;-67
2023/12/11 09:13:02;;;;;;;0.73;0.73;;;0.70;99.90;;;;;;5088966;28;20580;-68
2023/12/11 09:15:28;;;;;;;0.68;0.68;;;0.70;99.90;;;;;;5070731;28;20207;-67
2023/12/11 09:17:54;;;;;;;0.60;0.60;;;0.70;99.90;;;;;;5088920;28;20195;-67
2023/12/11 09:20:20;;;;;;;1.23;1.15;;;0.80;99.90;;;;;;5070419;28;20196;-67
2023/12/11 09:22:47;;;;;;;0.70;0.70;;;0.80;99.90;;;;;;5088386;28;20241;-69
2023/12/11 09:25:13;;;;;;;0.70;0.70;;;0.80;99.90;;;;;;5088202;28;20191;-67
2023/12/11 09:27:39;;;;;;;0.60;0.60;;;0.80;99.90;;;;;;5088007;28;20191;-68
2023/12/11 09:30:11;;;;;;;0.70;0.70;;;0.80;99.90;;;;;;5088648;28;20200;-68
2023/12/11 09:32:37;;;;;;;1.17;1.08;;;0.90;99.90;;;;;;5088464;28;20779;-68
2023/12/11 09:35:03;;;;;;;0.70;0.70;;;0.90;99.90;;;;;;5088684;28;20548;-67
2023/12/11 09:37:28;;;;;;;0.60;0.60;;;1.00;99.90;;;;;;5103893;28;20240;-67
2023/12/11 09:39:54;;;;;;;0.65;0.65;;;1.00;99.90;;;;;;5087980;28;20671;-66
2023/12/11 09:42:20;;;;;;;0.55;0.55;;;1.00;99.90;;;;;;5088042;28;20200;-67
2023/12/11 09:44:47;;;;;;;0.70;0.70;;;1.00;99.90;;;;;;5088371;28;20188;-68
2023/12/11 09:47:26;;;;;;;0.70;0.70;;;1.00;99.90;;;;;;5071536;28;20685;-67
2023/12/11 09:49:52;;;;;;;0.60;0.60;;;1.10;99.90;;;;;;5092362;28;20242;-69
2023/12/11 09:52:18;;;;;;;0.70;0.70;;;1.10;99.90;;;;;;5092137;28;20204;-67
2023/12/11 09:54:44;;;;;;;0.82;0.82;;;1.10;99.90;;;;;;5073479;28;20231;-67
2023/12/11 09:57:12;;;;;;;0.82;0.82;;;1.10;99.90;;;;;;5091926;28;20196;-67
2023/12/11 09:59:38;;;;;;;0.80;0.80;;;1.10;99.90;;;;;;5091784;28;20215;-69
2023/12/11 10:02:25;;;;;;;0.70;0.70;;;1.10;99.90;;;;;;5091860;28;20192;-66
2023/12/11 10:05:09;;;;;;;0.65;0.65;;;1.20;99.90;;;;;;5091932;28;20180;-71
2023/12/11 10:07:36;;;;;;;0.90;0.90;;;1.20;99.90;;;;;;5085599;28;20192;-71
2023/12/11 10:10:33;;;;;;;0.70;0.70;;;1.20;99.90;;;;;;5112088;28;20195;-71
2023/12/11 10:13:00;;;;;;;0.60;0.60;;;1.20;99.90;;;;;;5110781;28;20211;-70
2023/12/11 10:15:35;;;;;;;0.70;0.70;;;1.20;99.90;;;;;;5112131;28;20188;-71
2023/12/11 10:18:06;;;;;;;1.38;1.27;;;1.20;99.90;;;;;;5111821;28;20195;-72
2023/12/11 10:20:33;;;;;;;0.57;0.57;;;1.20;99.90;;;;;;5111930;28;20679;-71
2023/12/11 10:23:11;;;;;;;2.58;1.23;;;1.20;99.90;;;;;;5112172;28;20199;-71
2023/12/11 10:25:37;;;;;;;0.80;0.80;;;1.20;99.90;;;;;;5111899;28;20187;-71
2023/12/11 10:28:11;;;;;;;0.68;0.68;;;1.20;99.90;;;;;;5111962;28;20202;-70
2023/12/11 10:30:54;;;;;;;0.77;0.77;;;1.20;99.90;;;;;;5112019;28;20236;-71
2023/12/11 10:33:22;;;;;;;0.93;0.93;;;1.20;99.90;;;;;;5111594;28;20191;-71
2023/12/11 10:35:48;;;;;;;0.60;0.60;;;1.20;99.90;;;;;;5112036;28;20184;-71
2023/12/11 10:38:21;;;;;;;0.70;0.70;;;1.20;99.90;;;;;;5092810;28;20276;-71
2023/12/11 10:40:49;;;;;;;1.27;1.17;;;1.30;99.90;;;;;;5102181;28;20203;-71
2023/12/11 10:43:14;;;;;;;0.60;0.60;;;1.30;99.90;;;;;;5091310;28;20184;-71
2023/12/11 10:45:40;;;;;;;0.70;0.70;;;1.30;99.90;;;;;;5091137;28;20287;-71
2023/12/11 10:48:07;;;;;;;0.70;0.70;;;1.30;99.90;;;;;;5091184;28;20200;-71
2023/12/11 10:50:33;;;;;;;0.65;0.65;;;1.30;99.90;;;;;;5072566;28;20193;-71
2023/12/11 10:53:01;;;;;;;0.80;0.80;;;1.30;99.90;;;;;;5091346;28;20284;-71
2023/12/11 10:55:29;;;;;;;0.80;0.80;;;1.30;99.90;;;;;;5070667;28;20254;-71
2023/12/11 10:57:56;;;;;;;1.02;1.02;;;1.40;99.90;;;;;;5070362;28;20181;-71
2023/12/11 11:00:22;;;;;;;1.00;1.00;;;1.40;99.90;;;;;;5069060;28;20201;-71
2023/12/11 11:02:52;;;;;;;0.57;0.57;;;1.40;99.90;;;;;;5074647;28;20199;-71
2023/12/11 11:05:19;;;;;;;0.60;0.60;;;1.30;99.90;;;;;;5090705;28;20193;-70
2023/12/11 11:08:26;;;;;;;0.60;0.60;;;1.30;99.90;;;;;;5090672;28;20200;-71
2023/12/11 11:11:07;;;;;;;0.70;0.70;;;1.30;99.90;;;;;;5091389;28;20203;-71
2023/12/11 11:13:46;;;;;;;0.70;0.70;;;1.20;99.90;;;;;;5089230;28;20294;-70
2023/12/11 11:16:12;;;;;;;0.70;0.70;;;1.20;99.90;;;;;;5090505;28;20223;-70
2023/12/11 11:19:04;;;;;;;0.70;0.70;;;1.20;99.90;;;;;;5090346;28;20232;-70
2023/12/11 11:21:30;;;;;;;0.70;0.70;;;1.20;99.90;;;;;;5090320;28;20192;-70
2023/12/11 11:23:56;;;;;;;0.60;0.60;;;1.20;99.90;;;;;;5090312;28;20546;-70
2023/12/11 11:26:37;;;;;;;0.60;0.60;;;1.30;99.90;;;;;;5090262;28;20997;-70
2023/12/11 11:29:04;;;;;;;0.63;0.63;;;1.20;99.90;;;;;;5090470;28;20192;-70
2023/12/11 11:31:53;;;;;;;0.80;0.80;;;1.20;99.90;;;;;;5090303;28;20200;-71
2023/12/11 11:34:45;;;;;;;0.77;0.77;;;1.20;99.90;;;;;;5090648;28;20711;-71
2023/12/11 11:37:14;;;;;;;1.17;1.15;;;1.20;99.90;;;;;;5085298;28;20549;-71
2023/12/11 11:40:02;;;;;;;0.80;0.80;;;1.20;99.90;;;;;;5090496;28;20208;-73
2023/12/11 11:42:32;;;;;;;0.73;0.73;;;1.20;99.90;;;;;;5069850;28;20624;-71
2023/12/11 11:45:00;;;;;;;0.60;0.60;;;1.20;99.90;;;;;;5061853;28;20185;-71
2023/12/11 11:47:27;;;;;;;0.80;0.80;;;1.10;99.90;;;;;;5069489;28;20195;-71
2023/12/11 11:49:55;;;;;;;0.73;0.73;;;1.10;99.90;;;;;;5069579;28;20219;-71
2023/12/11 11:52:27;;;;;;;0.70;0.70;;;1.10;99.90;;;;;;5069345;28;20200;-71
2023/12/11 11:55:05;;;;;;;0.70;0.70;;;1.10;99.90;;;;;;5069749;28;20221;-71
2023/12/11 11:57:32;;;;;;;1.85;1.35;;;1.00;99.90;;;;;;5069436;28;20193;-71
2023/12/11 11:59:59;;;;;;;0.70;0.70;;;1.00;99.90;;;;;;5080494;28;20212;-71
2023/12/11 12:02:27;;;;;;;0.80;0.80;;;1.00;99.90;;;;;;5089446;28;20184;-71
2023/12/11 12:04:53;;;;;;;0.90;0.90;;;1.00;99.90;;;;;;5089389;28;20199;-71
2023/12/11 12:07:19;;;;;;;0.57;0.57;;;1.00;99.90;;;;;;5089501;28;20184;-71
2023/12/11 12:09:51;;;;;;;0.82;0.82;;;1.00;99.90;;;;;;5089192;28;20223;-71
2023/12/11 12:12:16;;;;;;;0.70;0.70;;;1.00;99.90;;;;;;5089507;28;20196;-71
2023/12/11 12:14:43;;;;;;;0.70;0.70;;;0.90;99.90;;;;;;5089366;28;20219;-70
2023/12/11 12:17:10;;;;;;;0.73;0.73;;;0.90;99.90;;;;;;5089456;28;20286;-70
2023/12/11 12:19:36;;;;;;;0.80;0.80;;;0.90;99.90;;;;;;5070708;28;20682;-71
2023/12/11 12:22:02;;;;;;;0.77;0.77;;;0.90;99.90;;;;;;5089382;28;20216;-71
2023/12/11 12:24:28;;;;;;;0.80;0.80;;;0.90;99.90;;;;;;5089191;28;20295;-68
2023/12/11 12:26:55;;;;;;;0.70;0.70;;;0.90;99.90;;;;;;5071048;28;20192;-70
2023/12/11 12:29:21;;;;;;;1.13;1.02;;;0.90;99.90;;;;;;5089475;28;20260;-69
2023/12/11 12:31:47;;;;;;;0.70;0.70;;;0.90;99.90;;;;;;5088743;28;20628;-68
2023/12/11 12:34:14;;;;;;;0.70;0.70;;;0.80;99.90;;;;;;5088881;28;20203;-69
2023/12/11 12:36:41;;;;;;;0.80;0.80;;;0.90;99.90;;;;;;5088449;28;20322;-68
2023/12/11 12:39:08;;;;;;;0.75;0.75;;;0.90;99.90;;;;;;5088391;28;20671;-67
2023/12/11 12:41:33;;;;;;;0.70;0.70;;;0.90;99.90;;;;;;5054173;28;20206;-69
2023/12/11 12:44:00;;;;;;;0.60;0.60;;;0.80;99.90;;;;;;5050555;28;20196;-68
2023/12/11 12:46:27;;;;;;;0.75;0.75;;;0.90;99.90;;;;;;5068527;28;20579;-71
2023/12/11 12:48:53;;;;;;;0.80;0.80;;;0.80;99.90;;;;;;5068760;28;20180;-67
2023/12/11 12:51:18;;;;;;;0.73;0.73;;;0.80;99.90;;;;;;5068757;28;20197;-69
2023/12/11 12:53:54;;;;;;;0.75;0.75;;;0.80;99.90;;;;;;5068443;28;20224;-68
2023/12/11 12:56:20;;;;;;;0.80;0.80;;;0.80;99.90;;;;;;5068354;28;20659;-68